sensor_id;sensor_type;location;lat;lon;timestamp;pressure;altitude;pressure_sealevel;temperature;humidity
2841;BME280;53423;49.224;12.074;2023-03-03T00:02:29;97891.94;;;2.35;62.42
2841;BME280;53423;49.224;12.074;2023-03-03T00:04:57;97888.53;;;2.22;62.77
2841;BME280;53423;49.224;12.074;2023-03-03T00:07:25;97890.22;;;2.10;63.65
2841;BME280;53423;49.224;12.074;2023-03-03T00:09:53;97899.78;;;2.10;62.55
2841;BME280;53423;49.224;12.074;2023-03-03T00:12:23;97890.63;;;2.17;63.52
2841;BME280;53423;49.224;12.074;2023-03-03T00:14:51;97891.63;;;1.91;62.52
2841;BME280;53423;49.224;12.074;2023-03-03T00:17:22;97900.31;;;1.65;64.16
2841;BME280;53423;49.224;12.074;2023-03-03T00:19:52;97892.47;;;1.79;63.12
2841;BME280;53423;49.224;12.074;2023-03-03T00:22:26;97893.09;;;1.57;64.26
2841;BME280;53423;49.224;12.074;2023-03-03T00:24:58;97900.66;;;1.22;62.58
2841;BME280;53423;49.224;12.074;2023-03-03T00:27:29;97898.59;;;1.27;64.71
2841;BME280;53423;49.224;12.074;2023-03-03T00:29:58;97887.72;;;1.35;64.51
2841;BME280;53423;49.224;12.074;2023-03-03T00:32:30;97889.59;;;1.71;62.93
2841;BME280;53423;49.224;12.074;2023-03-03T00:35:22;97894.31;;;1.89;62.88
2841;BME280;53423;49.224;12.074;2023-03-03T00:37:54;97899.72;;;1.86;63.03
2841;BME280;53423;49.224;12.074;2023-03-03T00:40:23;97887.41;;;1.65;62.02
2841;BME280;53423;49.224;12.074;2023-03-03T00:42:53;97894.75;;;1.33;63.76
2841;BME280;53423;49.224;12.074;2023-03-03T00:45:28;97887.03;;;1.46;64.16
2841;BME280;53423;49.224;12.074;2023-03-03T00:47:57;97889.38;;;1.49;63.94
2841;BME280;53423;49.224;12.074;2023-03-03T00:50:29;97891.88;;;1.50;63.61
2841;BME280;53423;49.224;12.074;2023-03-03T00:53:03;97887.63;;;1.74;63.87
2841;BME280;53423;49.224;12.074;2023-03-03T00:55:33;97893.31;;;1.54;63.20
2841;BME280;53423;49.224;12.074;2023-03-03T00:58:01;97892.66;;;1.00;64.83
2841;BME280;53423;49.224;12.074;2023-03-03T01:00:30;97897.31;;;1.33;65.45
2841;BME280;53423;49.224;12.074;2023-03-03T01:03:02;97895.25;;;1.63;62.87
2841;BME280;53423;49.224;12.074;2023-03-03T01:05:32;97894.63;;;1.35;63.37
2841;BME280;53423;49.224;12.074;2023-03-03T01:08:01;97890.50;;;1.07;64.02
2841;BME280;53423;49.224;12.074;2023-03-03T01:10:30;97896.53;;;1.33;64.90
2841;BME280;53423;49.224;12.074;2023-03-03T01:12:59;97883.16;;;1.26;65.65
2841;BME280;53423;49.224;12.074;2023-03-03T01:15:27;97892.91;;;1.35;65.17
2841;BME280;53423;49.224;12.074;2023-03-03T01:17:55;97893.81;;;1.21;65.07
2841;BME280;53423;49.224;12.074;2023-03-03T01:20:23;97901.03;;;1.16;64.34
2841;BME280;53423;49.224;12.074;2023-03-03T01:22:53;97895.66;;;1.07;65.37
2841;BME280;53423;49.224;12.074;2023-03-03T01:25:21;97893.38;;;1.15;65.42
2841;BME280;53423;49.224;12.074;2023-03-03T01:27:49;97896.44;;;0.95;66.35
2841;BME280;53423;49.224;12.074;2023-03-03T01:30:17;97896.25;;;0.98;64.89
2841;BME280;53423;49.224;12.074;2023-03-03T01:32:45;97892.56;;;1.02;64.68
2841;BME280;53423;49.224;12.074;2023-03-03T01:35:14;97897.34;;;1.20;65.69
2841;BME280;53423;49.224;12.074;2023-03-03T01:37:41;97894.72;;;0.95;65.40
2841;BME280;53423;49.224;12.074;2023-03-03T01:40:14;97894.66;;;1.22;64.78
2841;BME280;53423;49.224;12.074;2023-03-03T01:42:43;97888.97;;;1.29;65.03
2841;BME280;53423;49.224;12.074;2023-03-03T01:45:16;97893.59;;;1.50;64.44
2841;BME280;53423;49.224;12.074;2023-03-03T01:47:51;97889.97;;;1.14;64.34
2841;BME280;53423;49.224;12.074;2023-03-03T01:50:38;97881.88;;;0.81;65.16
2841;BME280;53423;49.224;12.074;2023-03-03T01:53:12;97882.75;;;0.68;65.01
2841;BME280;53423;49.224;12.074;2023-03-03T01:55:45;97884.50;;;0.67;65.34
2841;BME280;53423;49.224;12.074;2023-03-03T01:58:17;97873.34;;;0.93;65.90
2841;BME280;53423;49.224;12.074;2023-03-03T02:00:49;97874.72;;;0.72;64.86
2841;BME280;53423;49.224;12.074;2023-03-03T02:03:19;97880.38;;;1.04;64.46
2841;BME280;53423;49.224;12.074;2023-03-03T02:05:47;97877.50;;;1.08;64.69
2841;BME280;53423;49.224;12.074;2023-03-03T02:08:20;97873.16;;;1.09;63.59
2841;BME280;53423;49.224;12.074;2023-03-03T02:10:52;97876.38;;;0.73;65.85
2841;BME280;53423;49.224;12.074;2023-03-03T02:13:21;97880.19;;;0.68;66.16
2841;BME280;53423;49.224;12.074;2023-03-03T02:15:49;97885.88;;;0.73;67.06
2841;BME280;53423;49.224;12.074;2023-03-03T02:18:19;97889.03;;;0.90;65.40
2841;BME280;53423;49.224;12.074;2023-03-03T02:20:53;97891.75;;;0.75;65.43
2841;BME280;53423;49.224;12.074;2023-03-03T02:23:27;97891.88;;;0.86;65.60
2841;BME280;53423;49.224;12.074;2023-03-03T02:26:05;97903.88;;;0.87;64.78
2841;BME280;53423;49.224;12.074;2023-03-03T02:28:35;97895.06;;;0.77;65.06
2841;BME280;53423;49.224;12.074;2023-03-03T02:31:06;97895.88;;;0.77;66.17
2841;BME280;53423;49.224;12.074;2023-03-03T02:33:36;97896.00;;;0.23;66.65
2841;BME280;53423;49.224;12.074;2023-03-03T02:36:05;97897.50;;;0.39;66.21
2841;BME280;53423;49.224;12.074;2023-03-03T02:38:36;97897.56;;;0.78;65.01
2841;BME280;53423;49.224;12.074;2023-03-03T02:41:14;97893.72;;;0.45;64.63
2841;BME280;53423;49.224;12.074;2023-03-03T02:43:47;97893.28;;;0.38;66.07
2841;BME280;53423;49.224;12.074;2023-03-03T02:46:18;97898.97;;;0.70;66.91
2841;BME280;53423;49.224;12.074;2023-03-03T02:48:46;97898.28;;;0.80;65.93
2841;BME280;53423;49.224;12.074;2023-03-03T02:51:14;97901.03;;;0.77;66.16
2841;BME280;53423;49.224;12.074;2023-03-03T02:53:42;97896.03;;;0.88;64.95
2841;BME280;53423;49.224;12.074;2023-03-03T02:56:11;97893.03;;;0.94;65.42
2841;BME280;53423;49.224;12.074;2023-03-03T02:58:40;97899.28;;;0.65;64.80
2841;BME280;53423;49.224;12.074;2023-03-03T03:01:08;97894.66;;;0.44;64.00
2841;BME280;53423;49.224;12.074;2023-03-03T03:03:36;97893.38;;;0.37;65.49
2841;BME280;53423;49.224;12.074;2023-03-03T03:06:05;97899.63;;;0.47;65.14
2841;BME280;53423;49.224;12.074;2023-03-03T03:08:33;97894.56;;;0.45;64.50
2841;BME280;53423;49.224;12.074;2023-03-03T03:11:01;97887.63;;;0.19;65.04
2841;BME280;53423;49.224;12.074;2023-03-03T03:13:31;97892.97;;;0.02;65.64
2841;BME280;53423;49.224;12.074;2023-03-03T03:15:59;97891.78;;;0.22;65.64
2841;BME280;53423;49.224;12.074;2023-03-03T03:18:27;97888.59;;;0.31;66.54
2841;BME280;53423;49.224;12.074;2023-03-03T03:20:55;97888.59;;;0.31;65.82
2841;BME280;53423;49.224;12.074;2023-03-03T03:23:23;97891.63;;;0.37;64.72
2841;BME280;53423;49.224;12.074;2023-03-03T03:25:51;97888.56;;;0.04;67.03
2841;BME280;53423;49.224;12.074;2023-03-03T03:28:19;97891.38;;;0.28;66.83
2841;BME280;53423;49.224;12.074;2023-03-03T03:30:50;97891.72;;;0.36;65.24
2841;BME280;53423;49.224;12.074;2023-03-03T03:33:18;97893.75;;;0.31;65.81
2841;BME280;53423;49.224;12.074;2023-03-03T03:35:46;97898.47;;;0.24;66.09
2841;BME280;53423;49.224;12.074;2023-03-03T03:38:14;97909.41;;;0.28;66.15
2841;BME280;53423;49.224;12.074;2023-03-03T03:40:42;97906.78;;;0.15;67.00
2841;BME280;53423;49.224;12.074;2023-03-03T03:43:10;97903.28;;;0.16;67.58
2841;BME280;53423;49.224;12.074;2023-03-03T03:45:41;97904.47;;;0.25;66.03
2841;BME280;53423;49.224;12.074;2023-03-03T03:48:10;97899.25;;;0.39;66.86
2841;BME280;53423;49.224;12.074;2023-03-03T03:50:38;97901.69;;;0.14;66.60
2841;BME280;53423;49.224;12.074;2023-03-03T03:53:07;97890.94;;;0.07;66.54
2841;BME280;53423;49.224;12.074;2023-03-03T03:55:35;97903.19;;;0.18;66.61
2841;BME280;53423;49.224;12.074;2023-03-03T03:58:03;97896.31;;;0.04;66.09
2841;BME280;53423;49.224;12.074;2023-03-03T04:00:31;97890.44;;;-0.12;66.57
2841;BME280;53423;49.224;12.074;2023-03-03T04:02:59;97894.47;;;0.06;66.83
2841;BME280;53423;49.224;12.074;2023-03-03T04:05:28;97895.16;;;0.22;66.40
2841;BME280;53423;49.224;12.074;2023-03-03T04:07:56;97891.19;;;0.31;66.08
2841;BME280;53423;49.224;12.074;2023-03-03T04:10:24;97902.47;;;0.42;64.40
2841;BME280;53423;49.224;12.074;2023-03-03T04:12:52;97895.97;;;0.37;65.21
2841;BME280;53423;49.224;12.074;2023-03-03T04:15:20;97905.22;;;-0.02;66.31
2841;BME280;53423;49.224;12.074;2023-03-03T04:17:48;97902.47;;;0.02;65.34
2841;BME280;53423;49.224;12.074;2023-03-03T04:20:16;97907.63;;;-0.13;66.20
2841;BME280;53423;49.224;12.074;2023-03-03T04:22:45;97911.59;;;-0.21;65.53
2841;BME280;53423;49.224;12.074;2023-03-03T04:25:14;97911.59;;;-0.21;66.59
2841;BME280;53423;49.224;12.074;2023-03-03T04:27:42;97903.03;;;-0.08;65.57
2841;BME280;53423;49.224;12.074;2023-03-03T04:30:11;97918.69;;;-0.11;66.62
2841;BME280;53423;49.224;12.074;2023-03-03T04:32:39;97917.75;;;-0.10;65.98
2841;BME280;53423;49.224;12.074;2023-03-03T04:35:08;97921.22;;;0.03;65.99
2841;BME280;53423;49.224;12.074;2023-03-03T04:37:36;97921.81;;;-0.20;66.27
2841;BME280;53423;49.224;12.074;2023-03-03T04:40:08;97929.72;;;-0.23;66.82
2841;BME280;53423;49.224;12.074;2023-03-03T04:42:37;97927.13;;;-0.23;67.15
2841;BME280;53423;49.224;12.074;2023-03-03T04:45:06;97928.63;;;-0.19;66.97
2841;BME280;53423;49.224;12.074;2023-03-03T04:47:34;97923.63;;;-0.22;67.44
2841;BME280;53423;49.224;12.074;2023-03-03T04:50:02;97920.41;;;-0.11;67.97
2841;BME280;53423;49.224;12.074;2023-03-03T04:52:30;97925.66;;;0.02;67.59
2841;BME280;53423;49.224;12.074;2023-03-03T04:54:57;97917.66;;;0.06;67.78
2841;BME280;53423;49.224;12.074;2023-03-03T04:57:27;97922.06;;;0.04;67.83
2841;BME280;53423;49.224;12.074;2023-03-03T04:59:55;97913.78;;;0.13;67.35
2841;BME280;53423;49.224;12.074;2023-03-03T05:02:23;97918.63;;;0.18;66.98
2841;BME280;53423;49.224;12.074;2023-03-03T05:04:51;97921.94;;;0.20;67.31
2841;BME280;53423;49.224;12.074;2023-03-03T05:07:19;97915.66;;;0.38;66.67
2841;BME280;53423;49.224;12.074;2023-03-03T05:09:47;97930.56;;;0.33;66.17
2841;BME280;53423;49.224;12.074;2023-03-03T05:12:15;97928.50;;;0.25;66.44
2841;BME280;53423;49.224;12.074;2023-03-03T05:14:44;97927.34;;;0.29;66.87
2841;BME280;53423;49.224;12.074;2023-03-03T05:17:12;97931.59;;;0.30;67.14
2841;BME280;53423;49.224;12.074;2023-03-03T05:19:40;97927.34;;;0.29;67.54
2841;BME280;53423;49.224;12.074;2023-03-03T05:22:08;97932.28;;;0.06;66.54
2841;BME280;53423;49.224;12.074;2023-03-03T05:24:36;97924.19;;;-0.03;66.70
2841;BME280;53423;49.224;12.074;2023-03-03T05:27:04;97928.25;;;-0.13;67.01
2841;BME280;53423;49.224;12.074;2023-03-03T05:29:32;97918.38;;;0.08;66.37
2841;BME280;53423;49.224;12.074;2023-03-03T05:32:01;97928.78;;;0.07;66.12
2841;BME280;53423;49.224;12.074;2023-03-03T05:34:29;97932.56;;;0.15;66.52
2841;BME280;53423;49.224;12.074;2023-03-03T05:36:57;97940.97;;;0.31;66.88
2841;BME280;53423;49.224;12.074;2023-03-03T05:39:25;97936.47;;;0.35;65.80
2841;BME280;53423;49.224;12.074;2023-03-03T05:41:53;97937.97;;;0.25;66.41
2841;BME280;53423;49.224;12.074;2023-03-03T05:44:21;97939.63;;;0.12;66.22
2841;BME280;53423;49.224;12.074;2023-03-03T05:46:49;97943.59;;;-0.11;67.10
2841;BME280;53423;49.224;12.074;2023-03-03T05:49:18;97944.25;;;-0.08;66.51
2841;BME280;53423;49.224;12.074;2023-03-03T05:51:46;97948.31;;;-0.04;66.72
2841;BME280;53423;49.224;12.074;2023-03-03T05:54:14;97947.56;;;-0.06;66.07
2841;BME280;53423;49.224;12.074;2023-03-03T05:56:42;97947.47;;;-0.18;66.02
2841;BME280;53423;49.224;12.074;2023-03-03T05:59:10;97955.19;;;-0.04;65.35
2841;BME280;53423;49.224;12.074;2023-03-03T06:01:38;97941.84;;;-0.11;66.60
2841;BME280;53423;49.224;12.074;2023-03-03T06:04:06;97947.09;;;-0.12;66.80
2841;BME280;53423;49.224;12.074;2023-03-03T06:06:35;97955.38;;;-0.07;67.41
2841;BME280;53423;49.224;12.074;2023-03-03T06:09:03;97957.94;;;0.07;66.68
2841;BME280;53423;49.224;12.074;2023-03-03T06:11:31;97959.50;;;0.10;66.19
2841;BME280;53423;49.224;12.074;2023-03-03T06:13:59;97962.81;;;0.12;65.93
2841;BME280;53423;49.224;12.074;2023-03-03T06:16:27;97965.66;;;0.07;65.60
2841;BME280;53423;49.224;12.074;2023-03-03T06:18:55;97972.75;;;-0.11;65.82
2841;BME280;53423;49.224;12.074;2023-03-03T06:21:23;97970.72;;;-0.20;65.93
2841;BME280;53423;49.224;12.074;2023-03-03T06:23:53;97974.78;;;-0.30;66.23
2841;BME280;53423;49.224;12.074;2023-03-03T06:26:21;97965.84;;;-0.24;66.40
2841;BME280;53423;49.224;12.074;2023-03-03T06:28:49;97977.34;;;-0.02;66.52
2841;BME280;53423;49.224;12.074;2023-03-03T06:31:20;97991.28;;;0.10;66.90
2841;BME280;53423;49.224;12.074;2023-03-03T06:33:48;97994.16;;;0.46;66.50
2841;BME280;53423;49.224;12.074;2023-03-03T06:36:17;98003.63;;;0.46;65.57
2841;BME280;53423;49.224;12.074;2023-03-03T06:38:46;98005.13;;;0.36;66.22
2841;BME280;53423;49.224;12.074;2023-03-03T06:41:15;98003.75;;;0.16;66.68
2841;BME280;53423;49.224;12.074;2023-03-03T06:43:43;98005.97;;;0.08;66.00
2841;BME280;53423;49.224;12.074;2023-03-03T06:46:11;98008.00;;;0.31;65.65
2841;BME280;53423;49.224;12.074;2023-03-03T06:48:40;98004.88;;;0.40;66.64
2841;BME280;53423;49.224;12.074;2023-03-03T06:51:19;98011.22;;;0.49;65.66
2841;BME280;53423;49.224;12.074;2023-03-03T06:53:51;98009.88;;;0.56;66.32
2841;BME280;53423;49.224;12.074;2023-03-03T06:56:22;98015.25;;;0.79;65.44
2841;BME280;53423;49.224;12.074;2023-03-03T06:58:53;98015.44;;;0.90;64.13
2841;BME280;53423;49.224;12.074;2023-03-03T07:01:21;98011.38;;;1.13;64.30
2841;BME280;53423;49.224;12.074;2023-03-03T07:03:49;98011.13;;;1.30;63.76
2841;BME280;53423;49.224;12.074;2023-03-03T07:06:20;98017.56;;;0.84;63.64
2841;BME280;53423;49.224;12.074;2023-03-03T07:08:50;98017.41;;;0.73;65.28
2841;BME280;53423;49.224;12.074;2023-03-03T07:11:20;98004.91;;;0.93;64.60
2841;BME280;53423;49.224;12.074;2023-03-03T07:13:51;98006.84;;;0.90;64.74
2841;BME280;53423;49.224;12.074;2023-03-03T07:16:24;98012.16;;;1.01;65.32
2841;BME280;53423;49.224;12.074;2023-03-03T07:18:54;98020.34;;;1.34;64.54
2841;BME280;53423;49.224;12.074;2023-03-03T07:21:29;98008.84;;;1.90;62.81
2841;BME280;53423;49.224;12.074;2023-03-03T07:23:58;98010.28;;;2.31;61.45
2841;BME280;53423;49.224;12.074;2023-03-03T07:26:29;98019.47;;;2.84;60.70
2841;BME280;53423;49.224;12.074;2023-03-03T07:29:14;98020.13;;;3.46;58.22
2841;BME280;53423;49.224;12.074;2023-03-03T07:31:46;98024.75;;;3.30;58.44
2841;BME280;53423;49.224;12.074;2023-03-03T07:34:19;98035.66;;;2.75;59.41
2841;BME280;53423;49.224;12.074;2023-03-03T07:36:48;98035.38;;;2.42;61.30
2841;BME280;53423;49.224;12.074;2023-03-03T07:39:25;98045.28;;;2.61;61.25
2841;BME280;53423;49.224;12.074;2023-03-03T07:41:59;98050.84;;;3.16;60.03
2841;BME280;53423;49.224;12.074;2023-03-03T07:44:34;98036.88;;;3.99;57.02
2841;BME280;53423;49.224;12.074;2023-03-03T07:47:13;98037.25;;;4.05;56.28
2841;BME280;53423;49.224;12.074;2023-03-03T07:49:42;98040.59;;;4.62;55.98
2841;BME280;53423;49.224;12.074;2023-03-03T07:52:27;98030.97;;;5.70;53.59
2841;BME280;53423;49.224;12.074;2023-03-03T07:54:56;98035.56;;;5.78;53.14
2841;BME280;53423;49.224;12.074;2023-03-03T07:57:27;98021.16;;;5.74;50.82
2841;BME280;53423;49.224;12.074;2023-03-03T08:01:24;98028.31;;;6.13;52.41
2841;BME280;53423;49.224;12.074;2023-03-03T08:02:52;98030.25;;;6.00;50.30
2841;BME280;53423;49.224;12.074;2023-03-03T08:05:28;98032.81;;;6.11;51.74
2841;BME280;53423;49.224;12.074;2023-03-03T08:08:09;98032.00;;;6.20;50.09
2841;BME280;53423;49.224;12.074;2023-03-03T08:10:41;98042.03;;;6.85;48.34
2841;BME280;53423;49.224;12.074;2023-03-03T08:13:17;98048.41;;;7.01;49.94
2841;BME280;53423;49.224;12.074;2023-03-03T08:15:48;98045.59;;;6.84;49.67
2841;BME280;53423;49.224;12.074;2023-03-03T08:18:28;98043.97;;;6.53;50.64
2841;BME280;53423;49.224;12.074;2023-03-03T08:20:57;98052.44;;;6.75;49.29
2841;BME280;53423;49.224;12.074;2023-03-03T08:23:26;98050.16;;;7.69;46.35
2841;BME280;53423;49.224;12.074;2023-03-03T08:25:54;98053.72;;;7.78;46.24
2841;BME280;53423;49.224;12.074;2023-03-03T08:28:22;98057.28;;;7.96;45.01
2841;BME280;53423;49.224;12.074;2023-03-03T08:30:51;98061.78;;;7.36;46.92
2841;BME280;53423;49.224;12.074;2023-03-03T08:33:31;98065.88;;;7.20;46.97
2841;BME280;53423;49.224;12.074;2023-03-03T08:35:59;98071.28;;;7.47;45.21
2841;BME280;53423;49.224;12.074;2023-03-03T08:38:27;98074.81;;;7.46;46.09
2841;BME280;53423;49.224;12.074;2023-03-03T08:40:55;98066.72;;;7.20;45.58
2841;BME280;53423;49.224;12.074;2023-03-03T08:43:23;98066.63;;;7.79;44.89
2841;BME280;53423;49.224;12.074;2023-03-03T08:45:56;98068.38;;;7.40;45.32
2841;BME280;53423;49.224;12.074;2023-03-03T08:48:26;98063.94;;;8.46;43.56
2841;BME280;53423;49.224;12.074;2023-03-03T08:50:54;98067.69;;;8.80;43.24
2841;BME280;53423;49.224;12.074;2023-03-03T08:53:22;98057.88;;;9.19;41.86
2841;BME280;53423;49.224;12.074;2023-03-03T08:55:50;98064.63;;;9.39;40.84
2841;BME280;53423;49.224;12.074;2023-03-03T08:58:19;98061.59;;;9.78;40.58
2841;BME280;53423;49.224;12.074;2023-03-03T09:01:01;98058.16;;;10.64;38.68
2841;BME280;53423;49.224;12.074;2023-03-03T09:03:30;98057.38;;;10.21;38.27
2841;BME280;53423;49.224;12.074;2023-03-03T09:05:57;98050.97;;;9.97;39.55
2841;BME280;53423;49.224;12.074;2023-03-03T09:08:25;98049.22;;;10.24;39.16
2841;BME280;53423;49.224;12.074;2023-03-03T09:10:53;98054.84;;;10.88;36.62
2841;BME280;53423;49.224;12.074;2023-03-03T09:13:21;98055.16;;;10.08;38.74
2841;BME280;53423;49.224;12.074;2023-03-03T09:15:49;98049.00;;;9.99;38.22
2841;BME280;53423;49.224;12.074;2023-03-03T09:18:20;98052.75;;;10.66;37.98
2841;BME280;53423;49.224;12.074;2023-03-03T09:20:49;98047.66;;;10.90;37.16
2841;BME280;53423;49.224;12.074;2023-03-03T09:23:29;98037.31;;;10.55;35.32
2841;BME280;53423;49.224;12.074;2023-03-03T09:26:20;98033.97;;;11.20;35.95
2841;BME280;53423;49.224;12.074;2023-03-03T09:28:48;98037.06;;;11.73;35.55
2841;BME280;53423;49.224;12.074;2023-03-03T09:31:24;98046.94;;;11.95;35.24
2841;BME280;53423;49.224;12.074;2023-03-03T09:33:53;98047.19;;;11.60;36.04
2841;BME280;53423;49.224;12.074;2023-03-03T09:36:25;98041.47;;;12.53;33.38
2841;BME280;53423;49.224;12.074;2023-03-03T09:38:56;98051.66;;;11.68;34.81
2841;BME280;53423;49.224;12.074;2023-03-03T09:44:56;98035.09;;;12.15;33.60
2841;BME280;53423;49.224;12.074;2023-03-03T09:47:38;98029.16;;;12.45;33.10
2841;BME280;53423;49.224;12.074;2023-03-03T09:50:21;98035.88;;;12.40;33.46
2841;BME280;53423;49.224;12.074;2023-03-03T09:53:01;98040.16;;;12.49;33.79
2841;BME280;53423;49.224;12.074;2023-03-03T09:55:39;98042.31;;;12.37;32.81
2841;BME280;53423;49.224;12.074;2023-03-03T09:58:23;98044.78;;;13.10;31.66
2841;BME280;53423;49.224;12.074;2023-03-03T10:01:00;98037.50;;;13.42;31.77
2841;BME280;53423;49.224;12.074;2023-03-03T10:04:03;98042.28;;;13.69;31.86
2841;BME280;53423;49.224;12.074;2023-03-03T10:06:37;98058.16;;;13.31;31.45
2841;BME280;53423;49.224;12.074;2023-03-03T10:09:38;98047.31;;;13.34;31.79
2841;BME280;53423;49.224;12.074;2023-03-03T10:12:15;98049.41;;;12.92;33.73
2841;BME280;53423;49.224;12.074;2023-03-03T10:14:58;98043.34;;;13.83;29.97
2841;BME280;53423;49.224;12.074;2023-03-03T10:17:40;98039.22;;;15.07;28.57
2841;BME280;53423;49.224;12.074;2023-03-03T10:20:38;98040.84;;;14.78;29.31
2841;BME280;53423;49.224;12.074;2023-03-03T10:23:20;98033.91;;;15.21;28.19
2841;BME280;53423;49.224;12.074;2023-03-03T10:26:04;98043.28;;;13.68;30.19
2841;BME280;53423;49.224;12.074;2023-03-03T10:28:49;98047.13;;;13.27;31.88
2841;BME280;53423;49.224;12.074;2023-03-03T10:31:29;98043.94;;;13.70;30.97
2841;BME280;53423;49.224;12.074;2023-03-03T10:34:13;98041.75;;;15.15;28.01
2841;BME280;53423;49.224;12.074;2023-03-03T10:36:53;98036.50;;;14.56;29.46
2841;BME280;53423;49.224;12.074;2023-03-03T10:39:31;98032.66;;;14.73;29.55
2841;BME280;53423;49.224;12.074;2023-03-03T10:42:15;98039.44;;;15.55;27.80
2841;BME280;53423;49.224;12.074;2023-03-03T10:45:06;98044.22;;;14.58;30.05
2841;BME280;53423;49.224;12.074;2023-03-03T10:47:46;98033.47;;;15.18;29.24
2841;BME280;53423;49.224;12.074;2023-03-03T10:50:22;98027.34;;;15.17;28.66
2841;BME280;53423;49.224;12.074;2023-03-03T10:53:05;98028.34;;;15.31;28.28
2841;BME280;53423;49.224;12.074;2023-03-03T10:55:45;98027.94;;;14.69;29.38
2841;BME280;53423;49.224;12.074;2023-03-03T11:01:28;98030.78;;;14.97;28.57
2841;BME280;53423;49.224;12.074;2023-03-03T11:04:16;98034.47;;;14.44;28.79
2841;BME280;53423;49.224;12.074;2023-03-03T11:06:54;98031.84;;;14.21;30.23
2841;BME280;53423;49.224;12.074;2023-03-03T11:09:36;98033.94;;;15.07;28.64
2841;BME280;53423;49.224;12.074;2023-03-03T11:12:19;98033.59;;;14.95;28.38
2841;BME280;53423;49.224;12.074;2023-03-03T11:15:02;98023.44;;;14.26;29.53
2841;BME280;53423;49.224;12.074;2023-03-03T11:17:39;98023.22;;;14.79;29.46
2841;BME280;53423;49.224;12.074;2023-03-03T11:20:19;98024.00;;;15.23;29.49
2841;BME280;53423;49.224;12.074;2023-03-03T11:22:58;98020.13;;;15.76;28.23
2841;BME280;53423;49.224;12.074;2023-03-03T11:25:34;98016.75;;;14.96;29.13
2841;BME280;53423;49.224;12.074;2023-03-03T11:28:18;98013.97;;;13.71;29.51
2841;BME280;53423;49.224;12.074;2023-03-03T11:31:00;98014.19;;;14.07;31.60
2841;BME280;53423;49.224;12.074;2023-03-03T11:33:36;98007.78;;;15.26;29.85
2841;BME280;53423;49.224;12.074;2023-03-03T11:36:10;98006.19;;;16.58;27.19
2841;BME280;53423;49.224;12.074;2023-03-03T11:38:50;98009.81;;;15.60;27.42
2841;BME280;53423;49.224;12.074;2023-03-03T11:41:34;98016.38;;;15.14;29.82
2841;BME280;53423;49.224;12.074;2023-03-03T11:44:15;98013.13;;;15.33;29.94
2841;BME280;53423;49.224;12.074;2023-03-03T11:46:45;98008.25;;;15.15;29.55
2841;BME280;53423;49.224;12.074;2023-03-03T11:49:20;98000.94;;;15.32;28.51
2841;BME280;53423;49.224;12.074;2023-03-03T11:51:58;98006.06;;;15.19;28.76
2841;BME280;53423;49.224;12.074;2023-03-03T11:54:44;97991.59;;;16.13;28.88
2841;BME280;53423;49.224;12.074;2023-03-03T11:57:19;97987.81;;;16.84;27.00
2841;BME280;53423;49.224;12.074;2023-03-03T11:59:57;97997.41;;;16.51;27.72
2841;BME280;53423;49.224;12.074;2023-03-03T12:02:44;97983.47;;;17.17;26.80
2841;BME280;53423;49.224;12.074;2023-03-03T12:05:26;97982.75;;;17.43;25.99
2841;BME280;53423;49.224;12.074;2023-03-03T12:08:04;97975.06;;;17.74;25.70
2841;BME280;53423;49.224;12.074;2023-03-03T12:10:41;97975.09;;;18.00;26.01
2841;BME280;53423;49.224;12.074;2023-03-03T12:13:19;97971.63;;;16.66;27.38
2841;BME280;53423;49.224;12.074;2023-03-03T12:15:54;97969.31;;;16.97;26.68
2841;BME280;53423;49.224;12.074;2023-03-03T12:18:50;97967.56;;;16.36;27.30
2841;BME280;53423;49.224;12.074;2023-03-03T12:21:31;97959.59;;;17.04;26.15
2841;BME280;53423;49.224;12.074;2023-03-03T12:24:12;97958.56;;;17.66;26.22
2841;BME280;53423;49.224;12.074;2023-03-03T12:26:47;97953.22;;;17.59;27.18
2841;BME280;53423;49.224;12.074;2023-03-03T12:29:25;97948.38;;;18.02;26.39
2841;BME280;53423;49.224;12.074;2023-03-03T12:32:06;97947.22;;;17.31;26.88
2841;BME280;53423;49.224;12.074;2023-03-03T12:34:40;97950.09;;;17.36;26.79
2841;BME280;53423;49.224;12.074;2023-03-03T12:37:22;97957.06;;;16.49;27.78
2841;BME280;53423;49.224;12.074;2023-03-03T12:40:02;97944.50;;;16.58;28.17
2841;BME280;53423;49.224;12.074;2023-03-03T12:42:45;97947.13;;;16.30;27.44
2841;BME280;53423;49.224;12.074;2023-03-03T12:45:31;97954.50;;;15.23;30.03
2841;BME280;53423;49.224;12.074;2023-03-03T12:48:07;97942.47;;;15.77;28.66
2841;BME280;53423;49.224;12.074;2023-03-03T12:50:47;97940.47;;;16.34;27.80
2841;BME280;53423;49.224;12.074;2023-03-03T12:53:31;97940.00;;;16.58;28.25
2841;BME280;53423;49.224;12.074;2023-03-03T12:56:04;97933.44;;;16.48;27.82
2841;BME280;53423;49.224;12.074;2023-03-03T12:58:42;97929.00;;;16.27;28.99
2841;BME280;53423;49.224;12.074;2023-03-03T13:01:24;97924.28;;;16.91;26.58
2841;BME280;53423;49.224;12.074;2023-03-03T13:04:03;97925.56;;;16.61;27.62
2841;BME280;53423;49.224;12.074;2023-03-03T13:06:36;97923.47;;;15.94;27.03
2841;BME280;53423;49.224;12.074;2023-03-03T13:09:17;97918.56;;;16.12;27.78
2841;BME280;53423;49.224;12.074;2023-03-03T13:11:58;97921.41;;;16.86;26.84
2841;BME280;53423;49.224;12.074;2023-03-03T13:14:34;97922.31;;;15.76;26.66
2841;BME280;53423;49.224;12.074;2023-03-03T13:17:14;97919.59;;;15.42;27.67
2841;BME280;53423;49.224;12.074;2023-03-03T13:19:48;97921.56;;;15.19;28.81
2841;BME280;53423;49.224;12.074;2023-03-03T13:22:28;97919.88;;;15.74;28.41
2841;BME280;53423;49.224;12.074;2023-03-03T13:25:02;97924.69;;;15.92;27.26
2841;BME280;53423;49.224;12.074;2023-03-03T13:27:37;97918.94;;;15.82;28.02
2841;BME280;53423;49.224;12.074;2023-03-03T13:30:15;97922.78;;;15.58;26.99
2841;BME280;53423;49.224;12.074;2023-03-03T13:32:48;97919.81;;;15.68;27.33
2841;BME280;53423;49.224;12.074;2023-03-03T13:35:28;97921.63;;;16.16;27.88
2841;BME280;53423;49.224;12.074;2023-03-03T13:37:59;97917.53;;;15.86;28.26
2841;BME280;53423;49.224;12.074;2023-03-03T13:40:38;97921.75;;;15.80;27.83
2841;BME280;53423;49.224;12.074;2023-03-03T13:43:13;97920.88;;;15.73;27.31
2841;BME280;53423;49.224;12.074;2023-03-03T13:45:53;97920.47;;;15.49;27.83